PWSweather.com
Personal Weather Stations
Station Observations
RTINEZ
TerrassaES 08226

TerrassaES 08226

Lat: 41.5762194, Lon: 2.028993700000001

Elevation: 367

Station Type: Watson W8681

www.rtinez.cat

High Low Average
Temperature 88.9°F31.6°F 63.7°F17.6°F 74.2°F23.4°F
Dew Point 66.9°F19.4°F 57.3°F14.1°F 63.1°F17.3°F
Winds 15.9 mph -25.6 mph - 0.7 mph 1.1 mph 5.1 mph 8.2 mph
Wind Gusts 29.8 mph48.0 mph 3.8 mph6.1 mph 9.9 mph15.9 mph
Humidity 95% 38% 70%
Pressure 29.99 in1015.60 in 28.68 in971.20 in -
Precipitation 5.09 in129.30 in - -
Hour Temp Dew Point Humidity Winds Wind Gusts Pressure Precip Precip Rate Daily Precip Total
12:00 AM 72.7°F22.6°C 63.9°F17.7°C 74% 2.2 mph W3.5 kmh W 6.9 mph11.1 kmh 29.99 in1015.6 mb 0.00 in0.0 mm 0.00 in0.0 mm 0.00 in0.0 mm
12:15 AM 72.1°F22.3°C 63.4°F17.4°C 74% 3.8 mph NW6.1 kmh NW 4.5 mph7.2 kmh 28.76 in973.9 mb 0.00 in0.0 mm 0.00 in0.0 mm 0.00 in0.0 mm
12:30 AM 71.8°F22.1°C 64.2°F17.9°C 77% 1.6 mph NW2.6 kmh NW 4.5 mph7.2 kmh 29.98 in1015.2 mb 0.00 in0.0 mm 0.00 in0.0 mm 0.00 in0.0 mm
12:45 AM 71.4°F21.9°C 64.6°F18.1°C 79% 1.6 mph NNW2.6 kmh NNW 3.8 mph6.1 kmh 28.75 in973.6 mb 0.00 in0.0 mm 0.00 in0.0 mm 0.00 in0.0 mm
01:00 AM 71.2°F21.8°C 64.4°F18.0°C 79% 3.1 mph N5.0 kmh N 3.8 mph6.1 kmh 28.75 in973.6 mb 0.00 in0.0 mm 0.00 in0.0 mm 0.00 in0.0 mm
01:15 AM 71.2°F21.8°C 64.8°F18.2°C 80% 3.1 mph NW5.0 kmh NW 4.5 mph7.2 kmh 29.97 in1014.9 mb 0.00 in0.0 mm 0.00 in0.0 mm 0.00 in0.0 mm
01:30 AM 71.2°F21.8°C 65.1°F18.4°C 81% 3.1 mph NW5.0 kmh NW 5.4 mph8.7 kmh 29.97 in1014.9 mb 0.00 in0.0 mm 0.00 in0.0 mm 0.00 in0.0 mm
01:45 AM 71.2°F21.8°C 65.1°F18.4°C 81% 2.2 mph NW3.5 kmh NW 6.9 mph11.1 kmh 29.97 in1014.9 mb 0.00 in0.0 mm 0.00 in0.0 mm 0.00 in0.0 mm
02:00 AM 71.4°F21.9°C 65.7°F18.7°C 82% 3.1 mph WNW5.0 kmh WNW 5.4 mph8.7 kmh 28.74 in973.2 mb 0.00 in0.0 mm 0.00 in0.0 mm 0.00 in0.0 mm
02:15 AM 71.4°F21.9°C 66.4°F19.1°C 84% 2.2 mph W3.5 kmh W 5.4 mph8.7 kmh 28.73 in972.9 mb 0.00 in0.0 mm 0.00 in0.0 mm 0.00 in0.0 mm
02:30 AM 71.6°F22.0°C 66.9°F19.4°C 85% 4.5 mph W7.2 kmh W 8.3 mph13.4 kmh 29.96 in1014.6 mb 0.00 in0.0 mm 0.00 in0.0 mm 0.00 in0.0 mm
02:45 AM 71.2°F21.8°C 66.9°F19.4°C 86% 6.0 mph W9.7 kmh W 9.2 mph14.8 kmh 28.74 in973.2 mb 0.00 in0.0 mm 0.00 in0.0 mm 0.00 in0.0 mm
03:00 AM 70.9°F21.6°C 66.5°F19.2°C 86% 3.1 mph WNW5.0 kmh WNW 10.7 mph17.2 kmh 28.74 in973.2 mb 0.00 in0.0 mm 0.00 in0.0 mm 0.00 in0.0 mm
03:15 AM 70.3°F21.3°C 66.7°F19.3°C 88% 5.4 mph NW8.7 kmh NW 8.3 mph13.4 kmh 28.73 in972.9 mb 0.00 in0.0 mm 0.00 in0.0 mm 0.00 in0.0 mm
03:30 AM 70.7°F21.5°C 66.7°F19.3°C 87% 5.4 mph WNW8.7 kmh WNW 9.2 mph14.8 kmh 29.95 in1014.2 mb 0.00 in0.0 mm 0.00 in0.0 mm 0.00 in0.0 mm
03:45 AM 71.1°F21.7°C 65.7°F18.7°C 83% 5.4 mph WNW8.7 kmh WNW 9.2 mph14.8 kmh 29.94 in1013.9 mb 0.00 in0.0 mm 0.00 in0.0 mm 0.00 in0.0 mm
04:00 AM 70.9°F21.6°C 65.5°F18.6°C 83% 6.0 mph NW9.7 kmh NW 9.2 mph14.8 kmh 29.94 in1013.9 mb 0.00 in0.0 mm 0.00 in0.0 mm 0.00 in0.0 mm
04:15 AM 70.7°F21.5°C 65.7°F18.7°C 84% 5.4 mph W8.7 kmh W 9.2 mph14.8 kmh 28.72 in972.6 mb 0.00 in0.0 mm 0.00 in0.0 mm 0.00 in0.0 mm
04:30 AM 71.2°F21.8°C 64.4°F18.0°C 79% 3.1 mph WNW5.0 kmh WNW 7.6 mph12.2 kmh 29.94 in1013.9 mb 0.00 in0.0 mm 0.00 in0.0 mm 0.00 in0.0 mm
04:45 AM 71.4°F21.9°C 63.9°F17.7°C 77% 5.4 mph WSW8.7 kmh WSW 12.1 mph19.5 kmh 29.95 in1014.2 mb 0.00 in0.0 mm 0.00 in0.0 mm 0.00 in0.0 mm
05:00 AM 71.2°F21.8°C 63.7°F17.6°C 77% 8.3 mph WNW13.4 kmh WNW 11.4 mph18.3 kmh 28.73 in972.9 mb 0.00 in0.0 mm 0.00 in0.0 mm 0.00 in0.0 mm
05:15 AM 70.9°F21.6°C 64.8°F18.2°C 81% 6.0 mph W9.7 kmh W 11.4 mph18.3 kmh 29.94 in1013.9 mb 0.00 in0.0 mm 0.00 in0.0 mm 0.00 in0.0 mm
05:30 AM 71.2°F21.8°C 64.4°F18.0°C 79% 2.2 mph W3.5 kmh W 6.9 mph11.1 kmh 29.94 in1013.9 mb 0.00 in0.0 mm 0.00 in0.0 mm 0.00 in0.0 mm
05:45 AM 71.4°F21.9°C 63.1°F17.3°C 75% 3.1 mph WNW5.0 kmh WNW 5.4 mph8.7 kmh 28.71 in972.2 mb 0.00 in0.0 mm 0.00 in0.0 mm 0.00 in0.0 mm
06:00 AM 71.8°F22.1°C 62.3°F16.8°C 72% 3.8 mph W6.1 kmh W 4.5 mph7.2 kmh 28.72 in972.6 mb 0.00 in0.0 mm 0.00 in0.0 mm 0.00 in0.0 mm
06:15 AM 72.1°F22.3°C 61.8°F16.6°C 70% 2.2 mph W3.5 kmh W 7.6 mph12.2 kmh 29.94 in1013.9 mb 0.00 in0.0 mm 0.00 in0.0 mm 0.00 in0.0 mm
06:30 AM 72.0°F22.2°C 62.1°F16.7°C 71% 2.2 mph WNW3.5 kmh WNW 6.9 mph11.1 kmh 29.95 in1014.2 mb 0.00 in0.0 mm 0.00 in0.0 mm 0.00 in0.0 mm
06:45 AM 72.1°F22.3°C 62.6°F17.0°C 72% 7.6 mph W12.2 kmh W 9.8 mph15.8 kmh 28.72 in972.6 mb 0.00 in0.0 mm 0.00 in0.0 mm 0.00 in0.0 mm
07:00 AM 72.7°F22.6°C 62.8°F17.1°C 71% 3.1 mph W5.0 kmh W 7.6 mph12.2 kmh 28.71 in972.2 mb 0.00 in0.0 mm 0.00 in0.0 mm 0.00 in0.0 mm
07:15 AM 74.8°F23.8°C 63.2°F17.3°C 67% 2.2 mph W3.5 kmh W 4.5 mph7.2 kmh 28.71 in972.2 mb 0.00 in0.0 mm 0.00 in0.0 mm 0.00 in0.0 mm
07:30 AM 74.1°F23.4°C 62.5°F16.9°C 67% 4.5 mph W7.2 kmh W 6.0 mph9.7 kmh 28.71 in972.2 mb 0.00 in0.0 mm 0.00 in0.0 mm 0.00 in0.0 mm
07:45 AM 72.9°F22.7°C 62.5°F16.9°C 70% 4.5 mph WNW7.2 kmh WNW 13.0 mph20.9 kmh 29.95 in1014.2 mb 0.00 in0.0 mm 0.00 in0.0 mm 0.00 in0.0 mm
08:00 AM 72.1°F22.3°C 62.2°F16.8°C 71% 10.7 mph W17.2 kmh W 14.5 mph23.3 kmh 29.95 in1014.2 mb 0.00 in0.0 mm 0.00 in0.0 mm 0.00 in0.0 mm
08:15 AM 72.7°F22.6°C 62.8°F17.1°C 71% 4.5 mph NW7.2 kmh NW 12.1 mph19.5 kmh 28.73 in972.9 mb 0.00 in0.0 mm 0.00 in0.0 mm 0.00 in0.0 mm
08:30 AM 73.4°F23.0°C 63.9°F17.7°C 72% 6.0 mph NW9.7 kmh NW 13.0 mph20.9 kmh 28.72 in972.6 mb 0.00 in0.0 mm 0.00 in0.0 mm 0.00 in0.0 mm
08:45 AM 74.1°F23.4°C 62.9°F17.2°C 68% 4.5 mph N7.2 kmh N 7.6 mph12.2 kmh 28.71 in972.2 mb 0.00 in0.0 mm 0.00 in0.0 mm 0.00 in0.0 mm
09:00 AM 74.7°F23.7°C 62.1°F16.7°C 65% 3.1 mph E5.0 kmh E 6.0 mph9.7 kmh 29.94 in1013.9 mb 0.00 in0.0 mm 0.00 in0.0 mm 0.00 in0.0 mm
09:15 AM 72.7°F22.6°C 62.0°F16.7°C 69% 9.2 mph W14.8 kmh W 19.0 mph30.6 kmh 28.73 in972.9 mb 0.00 in0.0 mm 0.00 in0.0 mm 0.00 in0.0 mm
09:30 AM 73.4°F23.0°C 64.6°F18.1°C 74% 3.1 mph NE5.0 kmh NE 6.9 mph11.1 kmh 28.70 in971.9 mb 0.00 in0.0 mm 0.00 in0.0 mm 0.00 in0.0 mm
09:45 AM 75.9°F24.4°C 63.3°F17.4°C 65% 1.6 mph SE2.6 kmh SE 4.5 mph7.2 kmh 28.70 in971.9 mb 0.00 in0.0 mm 0.00 in0.0 mm 0.00 in0.0 mm
10:00 AM 75.6°F24.2°C 62.6°F17.0°C 64% 8.3 mph WSW13.4 kmh WSW 10.7 mph17.2 kmh 29.95 in1014.2 mb 0.00 in0.0 mm 0.00 in0.0 mm 0.00 in0.0 mm
10:15 AM 74.7°F23.7°C 63.9°F17.7°C 69% 3.8 mph WNW6.1 kmh WNW 12.1 mph19.5 kmh 29.96 in1014.6 mb 0.00 in0.0 mm 0.00 in0.0 mm 0.00 in0.0 mm
10:30 AM 75.4°F24.1°C 64.1°F17.8°C 68% 6.9 mph WNW11.1 kmh WNW 14.5 mph23.3 kmh 28.74 in973.2 mb 0.00 in0.0 mm 0.00 in0.0 mm 0.00 in0.0 mm
10:45 AM 75.7°F24.3°C 64.9°F18.3°C 69% 6.0 mph WNW9.7 kmh WNW 11.4 mph18.3 kmh 28.73 in972.9 mb 0.00 in0.0 mm 0.00 in0.0 mm 0.00 in0.0 mm
11:00 AM 77.2°F25.1°C 63.2°F17.3°C 62% 4.5 mph W7.2 kmh W 9.2 mph14.8 kmh 29.95 in1014.2 mb 0.00 in0.0 mm 0.00 in0.0 mm 0.00 in0.0 mm
11:15 AM 77.2°F25.1°C 61.8°F16.6°C 59% 3.8 mph WSW6.1 kmh WSW 7.6 mph12.2 kmh 29.95 in1014.2 mb 0.00 in0.0 mm 0.00 in0.0 mm 0.00 in0.0 mm
11:30 AM 78.8°F26.0°C 59.2°F15.1°C 51% 4.5 mph SW7.2 kmh SW 8.3 mph13.4 kmh 28.73 in972.9 mb 0.00 in0.0 mm 0.00 in0.0 mm 0.00 in0.0 mm
11:45 AM 82.9°F28.3°C 58.8°F14.9°C 44% 2.2 mph NW3.5 kmh NW 7.6 mph12.2 kmh 29.95 in1014.2 mb 0.00 in0.0 mm 0.00 in0.0 mm 0.00 in0.0 mm
12:00 PM 84.2°F29.0°C 57.3°F14.1°C 40% 6.0 mph N9.7 kmh N 8.3 mph13.4 kmh 29.96 in1014.6 mb 0.00 in0.0 mm 0.00 in0.0 mm 0.00 in0.0 mm
12:15 PM 81.9°F27.7°C 62.6°F17.0°C 52% 3.1 mph SW5.0 kmh SW 6.9 mph11.1 kmh 28.73 in972.9 mb 0.00 in0.0 mm 0.00 in0.0 mm 0.00 in0.0 mm
12:30 PM 83.8°F28.8°C 63.3°F17.4°C 50% 6.9 mph S11.1 kmh S 9.2 mph14.8 kmh 29.94 in1013.9 mb 0.00 in0.0 mm 0.00 in0.0 mm 0.00 in0.0 mm
12:45 PM 85.5°F29.7°C 63.0°F17.2°C 47% 2.2 mph SSE3.5 kmh SSE 5.4 mph8.7 kmh 29.93 in1013.5 mb 0.00 in0.0 mm 0.00 in0.0 mm 0.00 in0.0 mm
01:00 PM 84.9°F29.4°C 60.6°F15.9°C 44% 0.7 mph S1.1 kmh S 7.6 mph12.2 kmh 28.71 in972.2 mb 0.00 in0.0 mm 0.00 in0.0 mm 0.00 in0.0 mm
01:15 PM 87.1°F30.6°C 61.3°F16.3°C 42% 0.7 mph NNE1.1 kmh NNE 6.9 mph11.1 kmh 28.71 in972.2 mb 0.00 in0.0 mm 0.00 in0.0 mm 0.00 in0.0 mm
01:30 PM 88.9°F31.6°C 60.0°F15.6°C 38% 3.1 mph SSE5.0 kmh SSE 6.9 mph11.1 kmh 28.71 in972.2 mb 0.00 in0.0 mm 0.00 in0.0 mm 0.00 in0.0 mm
01:45 PM 86.7°F30.4°C 60.9°F16.1°C 42% 2.2 mph S3.5 kmh S 8.3 mph13.4 kmh 28.70 in971.9 mb 0.00 in0.0 mm 0.00 in0.0 mm 0.00 in0.0 mm
02:00 PM 86.4°F30.2°C 60.6°F15.9°C 42% 6.0 mph SE9.7 kmh SE 11.4 mph18.3 kmh 29.92 in1013.2 mb 0.00 in0.0 mm 0.00 in0.0 mm 0.00 in0.0 mm
02:15 PM 85.5°F29.7°C 59.1°F15.1°C 41% 5.4 mph SE8.7 kmh SE 9.8 mph15.8 kmh 29.92 in1013.2 mb 0.00 in0.0 mm 0.00 in0.0 mm 0.00 in0.0 mm
02:30 PM 84.6°F29.2°C 62.8°F17.1°C 48% 9.8 mph SSE15.8 kmh SSE 13.6 mph21.9 kmh 29.92 in1013.2 mb 0.00 in0.0 mm 0.00 in0.0 mm 0.00 in0.0 mm
02:45 PM 82.2°F27.9°C 65.0°F18.3°C 56% 7.6 mph SE12.2 kmh SE 17.4 mph28.0 kmh 28.70 in971.9 mb 0.00 in0.0 mm 0.00 in0.0 mm 0.00 in0.0 mm
03:00 PM 82.2°F27.9°C 64.0°F17.8°C 54% 9.2 mph SE14.8 kmh SE 21.3 mph34.3 kmh 28.70 in971.9 mb 0.00 in0.0 mm 0.00 in0.0 mm 0.00 in0.0 mm
03:15 PM 82.9°F28.3°C 64.1°F17.8°C 53% 6.0 mph SE9.7 kmh SE 15.9 mph25.6 kmh 29.92 in1013.2 mb 0.00 in0.0 mm 0.00 in0.0 mm 0.00 in0.0 mm
03:30 PM 83.5°F28.6°C 64.1°F17.8°C 52% 3.1 mph ESE5.0 kmh ESE 13.6 mph21.9 kmh 29.92 in1013.2 mb 0.00 in0.0 mm 0.00 in0.0 mm 0.00 in0.0 mm
03:45 PM 82.4°F28.0°C 63.6°F17.6°C 53% 6.0 mph SE9.7 kmh SE 12.1 mph19.5 kmh 29.91 in1012.9 mb 0.00 in0.0 mm 0.00 in0.0 mm 0.00 in0.0 mm
04:00 PM 82.0°F27.8°C 62.7°F17.1°C 52% 10.7 mph SE17.2 kmh SE 13.6 mph21.9 kmh 29.91 in1012.9 mb 0.00 in0.0 mm 0.00 in0.0 mm 0.00 in0.0 mm
04:15 PM 81.7°F27.6°C 62.9°F17.2°C 53% 6.0 mph SE9.7 kmh SE 9.8 mph15.8 kmh 29.90 in1012.5 mb 0.00 in0.0 mm 0.00 in0.0 mm 0.00 in0.0 mm
04:30 PM 81.7°F27.6°C 63.5°F17.5°C 54% 6.9 mph ESE11.1 kmh ESE 14.5 mph23.3 kmh 29.90 in1012.5 mb 0.00 in0.0 mm 0.00 in0.0 mm 0.00 in0.0 mm
04:45 PM 81.1°F27.3°C 63.0°F17.2°C 54% 6.0 mph SE9.7 kmh SE 14.5 mph23.3 kmh 29.89 in1012.2 mb 0.00 in0.0 mm 0.00 in0.0 mm 0.00 in0.0 mm
05:00 PM 79.5°F26.4°C 63.0°F17.2°C 57% 10.7 mph ESE17.2 kmh ESE 16.8 mph27.0 kmh 28.68 in971.2 mb 0.00 in0.0 mm 0.00 in0.0 mm 0.00 in0.0 mm
05:15 PM 77.5°F25.3°C 63.5°F17.5°C 62% 6.9 mph SE11.1 kmh SE 14.5 mph23.3 kmh 28.68 in971.2 mb 0.00 in0.0 mm 0.00 in0.0 mm 0.00 in0.0 mm
05:30 PM 77.4°F25.2°C 63.8°F17.7°C 63% 3.8 mph SE6.1 kmh SE 10.7 mph17.2 kmh 29.90 in1012.5 mb 0.00 in0.0 mm 0.00 in0.0 mm 0.00 in0.0 mm
05:45 PM 77.2°F25.1°C 64.1°F17.8°C 64% 7.6 mph ESE12.2 kmh ESE 10.7 mph17.2 kmh 29.90 in1012.5 mb 0.00 in0.0 mm 0.00 in0.0 mm 0.00 in0.0 mm
06:00 PM 76.3°F24.6°C 65.4°F18.6°C 69% 5.4 mph E8.7 kmh E 9.2 mph14.8 kmh 29.91 in1012.9 mb 0.00 in0.0 mm 0.00 in0.0 mm 0.00 in0.0 mm
06:15 PM 70.9°F21.6°C 65.5°F18.6°C 83% 15.9 mph N25.6 kmh N 26.6 mph42.8 kmh 29.97 in1014.9 mb 0.22 in5.6 mm 0.88 in22.4 mm 0.22 in5.6 mm
06:30 PM 65.1°F18.4°C 62.8°F17.1°C 92% 3.1 mph NW5.0 kmh NW 29.8 mph48.0 kmh 28.76 in973.9 mb 0.83 in21.1 mm 2.44 in62.0 mm 0.83 in21.1 mm
06:45 PM 63.7°F17.6°C 61.3°F16.3°C 92% 2.2 mph ENE3.5 kmh ENE 14.5 mph23.3 kmh 28.74 in973.2 mb 1.21 in30.7 mm 1.52 in38.6 mm 1.21 in30.7 mm
07:00 PM 64.9°F18.3°C 63.5°F17.5°C 95% 6.9 mph NW11.1 kmh NW 9.2 mph14.8 kmh 28.72 in972.6 mb 1.22 in31.0 mm 0.01 in0.3 mm 1.22 in31.0 mm
07:15 PM 66.6°F19.2°C 62.3°F16.8°C 86% 7.6 mph NE12.2 kmh NE 11.4 mph18.3 kmh 28.70 in971.9 mb 1.02 in25.9 mm 0.00 in0.0 mm 1.24 in31.5 mm
07:30 PM 66.2°F19.0°C 61.6°F16.4°C 85% 3.1 mph ENE5.0 kmh ENE 12.1 mph19.5 kmh 28.70 in971.9 mb 0.43 in10.9 mm 0.00 in0.0 mm 1.26 in32.0 mm
07:45 PM 66.2°F19.0°C 62.6°F17.0°C 88% 3.8 mph ENE6.1 kmh ENE 7.6 mph12.2 kmh 28.70 in971.9 mb 0.07 in1.8 mm 0.00 in0.0 mm 1.28 in32.5 mm
08:00 PM 66.0°F18.9°C 63.7°F17.6°C 92% 6.9 mph E11.1 kmh E 13.0 mph20.9 kmh 29.93 in1013.5 mb 0.05 in1.3 mm 0.00 in0.0 mm 1.28 in32.5 mm
08:15 PM 66.7°F19.3°C 64.1°F17.8°C 91% 9.2 mph WNW14.8 kmh WNW 15.9 mph25.6 kmh 29.94 in1013.9 mb 0.03 in0.8 mm 0.00 in0.0 mm 1.28 in32.5 mm
08:30 PM 66.7°F19.3°C 62.8°F17.1°C 87% 4.5 mph NW7.2 kmh NW 8.3 mph13.4 kmh 28.71 in972.2 mb 0.01 in0.3 mm 0.00 in0.0 mm 1.28 in32.5 mm
08:45 PM 67.8°F19.9°C 62.5°F16.9°C 83% 3.8 mph NW6.1 kmh NW 7.6 mph12.2 kmh 28.70 in971.9 mb 0.00 in0.0 mm 0.00 in0.0 mm 1.28 in32.5 mm
09:00 PM 68.4°F20.2°C 62.3°F16.8°C 81% 3.1 mph NW5.0 kmh NW 6.0 mph9.7 kmh 28.70 in971.9 mb 0.00 in0.0 mm 0.00 in0.0 mm 1.28 in32.5 mm
09:15 PM 68.2°F20.1°C 61.8°F16.6°C 80% 10.7 mph W17.2 kmh W 13.6 mph21.9 kmh 28.71 in972.2 mb 0.00 in0.0 mm 0.00 in0.0 mm 1.28 in32.5 mm
09:30 PM 67.3°F19.6°C 62.3°F16.8°C 84% 2.2 mph NW3.5 kmh NW 9.2 mph14.8 kmh 28.71 in972.2 mb 0.00 in0.0 mm 0.00 in0.0 mm 1.28 in32.5 mm
09:45 PM 67.1°F19.5°C 63.1°F17.3°C 87% 2.2 mph NW3.5 kmh NW 4.5 mph7.2 kmh 28.71 in972.2 mb 0.00 in0.0 mm 0.00 in0.0 mm 1.28 in32.5 mm
10:00 PM 68.0°F20.0°C 62.7°F17.1°C 83% 6.0 mph W9.7 kmh W 8.3 mph13.4 kmh 28.71 in972.2 mb 0.00 in0.0 mm 0.00 in0.0 mm 1.28 in32.5 mm
10:15 PM 68.0°F20.0°C 61.6°F16.4°C 80% 3.1 mph W5.0 kmh W 8.3 mph13.4 kmh 28.71 in972.2 mb 0.00 in0.0 mm 0.00 in0.0 mm 1.28 in32.5 mm
10:30 PM 67.5°F19.7°C 61.5°F16.4°C 81% 6.9 mph WNW11.1 kmh WNW 8.3 mph13.4 kmh 28.72 in972.6 mb 0.00 in0.0 mm 0.00 in0.0 mm 1.28 in32.5 mm
10:45 PM 69.3°F20.7°C 60.3°F15.7°C 73% 9.2 mph NW14.8 kmh NW 10.7 mph17.2 kmh 29.94 in1013.9 mb 0.00 in0.0 mm 0.00 in0.0 mm 1.28 in32.5 mm
11:00 PM 71.6°F22.0°C 57.5°F14.2°C 61% 9.8 mph NW15.8 kmh NW 13.6 mph21.9 kmh 29.94 in1013.9 mb 0.00 in0.0 mm 0.00 in0.0 mm 1.22 in31.0 mm
11:15 PM 70.9°F21.6°C 59.4°F15.2°C 67% 6.9 mph NW11.1 kmh NW 9.2 mph14.8 kmh 28.72 in972.6 mb 0.00 in0.0 mm 0.00 in0.0 mm 1.22 in31.0 mm
11:30 PM 70.7°F21.5°C 59.6°F15.3°C 68% 4.5 mph NW7.2 kmh NW 8.3 mph13.4 kmh 28.72 in972.6 mb 0.00 in0.0 mm 0.00 in0.0 mm 1.22 in31.0 mm
11:45 PM 70.2°F21.2°C 59.9°F15.5°C 70% 3.1 mph WNW5.0 kmh WNW 5.4 mph8.7 kmh 29.95 in1014.2 mb 0.00 in0.0 mm 0.00 in0.0 mm 1.22 in31.0 mm